sensor_id;sensor_type;location;lat;lon;timestamp;pressure;altitude;pressure_sealevel;temperature
20092;BMP180;10205;49.678;6.560;2024-03-07T00:00:02;100583.00;;;12.80
20092;BMP180;10205;49.678;6.560;2024-03-07T00:02:32;100575.00;;;12.80
20092;BMP180;10205;49.678;6.560;2024-03-07T00:05:00;100581.00;;;12.80
20092;BMP180;10205;49.678;6.560;2024-03-07T00:07:27;100583.00;;;12.80
20092;BMP180;10205;49.678;6.560;2024-03-07T00:09:54;100579.00;;;12.80
20092;BMP180;10205;49.678;6.560;2024-03-07T00:12:23;100587.00;;;12.70
20092;BMP180;10205;49.678;6.560;2024-03-07T00:14:50;100586.00;;;12.70
20092;BMP180;10205;49.678;6.560;2024-03-07T00:17:17;100582.00;;;12.70
20092;BMP180;10205;49.678;6.560;2024-03-07T00:19:45;100586.00;;;12.70
20092;BMP180;10205;49.678;6.560;2024-03-07T00:22:13;100590.00;;;12.60
20092;BMP180;10205;49.678;6.560;2024-03-07T00:24:41;100571.00;;;12.60
20092;BMP180;10205;49.678;6.560;2024-03-07T00:27:08;100576.00;;;12.60
20092;BMP180;10205;49.678;6.560;2024-03-07T00:29:37;100575.00;;;12.60
20092;BMP180;10205;49.678;6.560;2024-03-07T00:32:04;100565.00;;;12.60
20092;BMP180;10205;49.678;6.560;2024-03-07T00:34:32;100575.00;;;12.50
20092;BMP180;10205;49.678;6.560;2024-03-07T00:36:59;100576.00;;;12.50
20092;BMP180;10205;49.678;6.560;2024-03-07T00:39:26;100572.00;;;12.50
20092;BMP180;10205;49.678;6.560;2024-03-07T00:41:53;100583.00;;;12.50
20092;BMP180;10205;49.678;6.560;2024-03-07T00:44:21;100577.00;;;12.40
20092;BMP180;10205;49.678;6.560;2024-03-07T00:46:49;100591.00;;;12.40
20092;BMP180;10205;49.678;6.560;2024-03-07T00:49:16;100573.00;;;12.30
20092;BMP180;10205;49.678;6.560;2024-03-07T00:51:43;100569.00;;;12.30
20092;BMP180;10205;49.678;6.560;2024-03-07T00:54:10;100574.00;;;12.30
20092;BMP180;10205;49.678;6.560;2024-03-07T00:56:38;100566.00;;;12.30
20092;BMP180;10205;49.678;6.560;2024-03-07T00:59:07;100580.00;;;12.30
20092;BMP180;10205;49.678;6.560;2024-03-07T01:01:34;100563.00;;;12.20
20092;BMP180;10205;49.678;6.560;2024-03-07T01:04:05;100564.00;;;12.20
20092;BMP180;10205;49.678;6.560;2024-03-07T01:06:33;100572.00;;;12.20
20092;BMP180;10205;49.678;6.560;2024-03-07T01:09:01;100560.00;;;12.20
20092;BMP180;10205;49.678;6.560;2024-03-07T01:11:29;100560.00;;;12.20
20092;BMP180;10205;49.678;6.560;2024-03-07T01:13:56;100559.00;;;12.10
20092;BMP180;10205;49.678;6.560;2024-03-07T01:16:23;100561.00;;;12.10
20092;BMP180;10205;49.678;6.560;2024-03-07T01:18:50;100562.00;;;12.10
20092;BMP180;10205;49.678;6.560;2024-03-07T01:21:18;100547.00;;;12.00
20092;BMP180;10205;49.678;6.560;2024-03-07T01:23:45;100560.00;;;12.00
20092;BMP180;10205;49.678;6.560;2024-03-07T01:26:12;100558.00;;;12.00
20092;BMP180;10205;49.678;6.560;2024-03-07T01:28:40;100547.00;;;12.00
20092;BMP180;10205;49.678;6.560;2024-03-07T01:31:07;100549.00;;;12.00
20092;BMP180;10205;49.678;6.560;2024-03-07T01:33:36;100546.00;;;12.00
20092;BMP180;10205;49.678;6.560;2024-03-07T01:36:03;100543.00;;;12.00
20092;BMP180;10205;49.678;6.560;2024-03-07T01:38:32;100537.00;;;11.90
20092;BMP180;10205;49.678;6.560;2024-03-07T01:40:59;100551.00;;;11.90
20092;BMP180;10205;49.678;6.560;2024-03-07T01:43:26;100537.00;;;11.90
20092;BMP180;10205;49.678;6.560;2024-03-07T01:45:57;100536.00;;;11.90
20092;BMP180;10205;49.678;6.560;2024-03-07T01:48:27;100539.00;;;11.90
20092;BMP180;10205;49.678;6.560;2024-03-07T01:50:55;100550.00;;;11.80
20092;BMP180;10205;49.678;6.560;2024-03-07T01:53:24;100539.00;;;11.80
20092;BMP180;10205;49.678;6.560;2024-03-07T01:55:53;100549.00;;;11.80
20092;BMP180;10205;49.678;6.560;2024-03-07T01:58:21;100526.00;;;11.80
20092;BMP180;10205;49.678;6.560;2024-03-07T02:00:49;100535.00;;;11.70
20092;BMP180;10205;49.678;6.560;2024-03-07T02:03:17;100531.00;;;11.70
20092;BMP180;10205;49.678;6.560;2024-03-07T02:05:44;100533.00;;;11.70
20092;BMP180;10205;49.678;6.560;2024-03-07T02:08:11;100525.00;;;11.70
20092;BMP180;10205;49.678;6.560;2024-03-07T02:10:41;100529.00;;;11.70
20092;BMP180;10205;49.678;6.560;2024-03-07T02:13:09;100521.00;;;11.60
20092;BMP180;10205;49.678;6.560;2024-03-07T02:15:36;100524.00;;;11.60
20092;BMP180;10205;49.678;6.560;2024-03-07T02:18:04;100524.00;;;11.60
20092;BMP180;10205;49.678;6.560;2024-03-07T02:20:31;100522.00;;;11.60
20092;BMP180;10205;49.678;6.560;2024-03-07T02:22:59;100518.00;;;11.60
20092;BMP180;10205;49.678;6.560;2024-03-07T02:25:28;100525.00;;;11.60
20092;BMP180;10205;49.678;6.560;2024-03-07T02:27:56;100507.00;;;11.60
20092;BMP180;10205;49.678;6.560;2024-03-07T02:30:23;100514.00;;;11.60
20092;BMP180;10205;49.678;6.560;2024-03-07T02:32:50;100515.00;;;11.60
20092;BMP180;10205;49.678;6.560;2024-03-07T02:35:20;100497.00;;;11.50
20092;BMP180;10205;49.678;6.560;2024-03-07T02:37:47;100498.00;;;11.50
20092;BMP180;10205;49.678;6.560;2024-03-07T02:40:16;100499.00;;;11.50
20092;BMP180;10205;49.678;6.560;2024-03-07T02:42:43;100505.00;;;11.50
20092;BMP180;10205;49.678;6.560;2024-03-07T02:45:10;100505.00;;;11.50
20092;BMP180;10205;49.678;6.560;2024-03-07T02:47:40;100504.00;;;11.50
20092;BMP180;10205;49.678;6.560;2024-03-07T02:50:10;100507.00;;;11.40
20092;BMP180;10205;49.678;6.560;2024-03-07T02:52:37;100504.00;;;11.40
20092;BMP180;10205;49.678;6.560;2024-03-07T02:55:08;100495.00;;;11.40
20092;BMP180;10205;49.678;6.560;2024-03-07T02:57:37;100503.00;;;11.40
20092;BMP180;10205;49.678;6.560;2024-03-07T03:00:06;100491.00;;;11.40
20092;BMP180;10205;49.678;6.560;2024-03-07T03:02:45;100503.00;;;11.40
20092;BMP180;10205;49.678;6.560;2024-03-07T03:05:13;100490.00;;;11.40
20092;BMP180;10205;49.678;6.560;2024-03-07T03:07:41;100482.00;;;11.40
20092;BMP180;10205;49.678;6.560;2024-03-07T03:10:08;100486.00;;;11.30
20092;BMP180;10205;49.678;6.560;2024-03-07T03:12:38;100485.00;;;11.30
20092;BMP180;10205;49.678;6.560;2024-03-07T03:15:09;100502.00;;;11.30
20092;BMP180;10205;49.678;6.560;2024-03-07T03:17:37;100483.00;;;11.30
20092;BMP180;10205;49.678;6.560;2024-03-07T03:20:06;100488.00;;;11.30
20092;BMP180;10205;49.678;6.560;2024-03-07T03:22:40;100474.00;;;11.30
20092;BMP180;10205;49.678;6.560;2024-03-07T03:25:09;100475.00;;;11.20
20092;BMP180;10205;49.678;6.560;2024-03-07T03:27:38;100482.00;;;11.20
20092;BMP180;10205;49.678;6.560;2024-03-07T03:30:07;100474.00;;;11.20
20092;BMP180;10205;49.678;6.560;2024-03-07T03:32:39;100477.00;;;11.20
20092;BMP180;10205;49.678;6.560;2024-03-07T03:35:07;100477.00;;;11.20
20092;BMP180;10205;49.678;6.560;2024-03-07T03:37:40;100476.00;;;11.20
20092;BMP180;10205;49.678;6.560;2024-03-07T03:40:09;100473.00;;;11.10
20092;BMP180;10205;49.678;6.560;2024-03-07T03:42:38;100475.00;;;11.10
20092;BMP180;10205;49.678;6.560;2024-03-07T03:45:07;100475.00;;;11.10
20092;BMP180;10205;49.678;6.560;2024-03-07T03:47:38;100484.00;;;11.10
20092;BMP180;10205;49.678;6.560;2024-03-07T03:50:07;100477.00;;;11.10
20092;BMP180;10205;49.678;6.560;2024-03-07T03:52:34;100474.00;;;11.00
20092;BMP180;10205;49.678;6.560;2024-03-07T03:55:04;100471.00;;;11.00
20092;BMP180;10205;49.678;6.560;2024-03-07T03:57:33;100475.00;;;11.00
20092;BMP180;10205;49.678;6.560;2024-03-07T04:00:02;100468.00;;;11.00
20092;BMP180;10205;49.678;6.560;2024-03-07T04:02:33;100473.00;;;11.00
20092;BMP180;10205;49.678;6.560;2024-03-07T04:05:00;100478.00;;;10.90
20092;BMP180;10205;49.678;6.560;2024-03-07T04:07:27;100482.00;;;10.90
20092;BMP180;10205;49.678;6.560;2024-03-07T04:09:55;100481.00;;;10.90
20092;BMP180;10205;49.678;6.560;2024-03-07T04:12:22;100474.00;;;10.90
20092;BMP180;10205;49.678;6.560;2024-03-07T04:14:49;100478.00;;;10.90
20092;BMP180;10205;49.678;6.560;2024-03-07T04:17:17;100481.00;;;10.80
20092;BMP180;10205;49.678;6.560;2024-03-07T04:19:46;100480.00;;;10.80
20092;BMP180;10205;49.678;6.560;2024-03-07T04:22:14;100476.00;;;10.80
20092;BMP180;10205;49.678;6.560;2024-03-07T04:24:41;100472.00;;;10.80
20092;BMP180;10205;49.678;6.560;2024-03-07T04:27:08;100459.00;;;10.80
20092;BMP180;10205;49.678;6.560;2024-03-07T04:29:36;100458.00;;;10.70
20092;BMP180;10205;49.678;6.560;2024-03-07T04:32:03;100460.00;;;10.70
20092;BMP180;10205;49.678;6.560;2024-03-07T04:34:32;100451.00;;;10.70
20092;BMP180;10205;49.678;6.560;2024-03-07T04:37:00;100456.00;;;10.60
20092;BMP180;10205;49.678;6.560;2024-03-07T04:39:27;100458.00;;;10.60
20092;BMP180;10205;49.678;6.560;2024-03-07T04:41:58;100455.00;;;10.60
20092;BMP180;10205;49.678;6.560;2024-03-07T04:44:27;100449.00;;;10.50
20092;BMP180;10205;49.678;6.560;2024-03-07T04:46:54;100449.00;;;10.50
20092;BMP180;10205;49.678;6.560;2024-03-07T04:49:22;100455.00;;;10.40
20092;BMP180;10205;49.678;6.560;2024-03-07T04:51:52;100452.00;;;10.30
20092;BMP180;10205;49.678;6.560;2024-03-07T04:54:21;100450.00;;;10.20
20092;BMP180;10205;49.678;6.560;2024-03-07T04:56:50;100439.00;;;10.20
20092;BMP180;10205;49.678;6.560;2024-03-07T04:59:19;100448.00;;;10.10
20092;BMP180;10205;49.678;6.560;2024-03-07T05:01:48;100445.00;;;10.00
20092;BMP180;10205;49.678;6.560;2024-03-07T05:04:16;100453.00;;;9.80
20092;BMP180;10205;49.678;6.560;2024-03-07T05:06:44;100446.00;;;9.70
20092;BMP180;10205;49.678;6.560;2024-03-07T05:09:15;100443.00;;;9.60
20092;BMP180;10205;49.678;6.560;2024-03-07T05:11:51;100442.00;;;9.50
20092;BMP180;10205;49.678;6.560;2024-03-07T05:14:18;100444.00;;;9.50
20092;BMP180;10205;49.678;6.560;2024-03-07T05:16:46;100438.00;;;9.50
20092;BMP180;10205;49.678;6.560;2024-03-07T05:19:27;100439.00;;;9.60
20092;BMP180;10205;49.678;6.560;2024-03-07T05:21:56;100438.00;;;9.60
20092;BMP180;10205;49.678;6.560;2024-03-07T05:24:25;100444.00;;;9.60
20092;BMP180;10205;49.678;6.560;2024-03-07T05:26:52;100439.00;;;9.70
20092;BMP180;10205;49.678;6.560;2024-03-07T05:29:20;100435.00;;;9.70
20092;BMP180;10205;49.678;6.560;2024-03-07T05:31:47;100434.00;;;9.60
20092;BMP180;10205;49.678;6.560;2024-03-07T05:34:16;100430.00;;;9.50
20092;BMP180;10205;49.678;6.560;2024-03-07T05:36:45;100435.00;;;9.50
20092;BMP180;10205;49.678;6.560;2024-03-07T05:39:14;100429.00;;;9.50
20092;BMP180;10205;49.678;6.560;2024-03-07T05:41:44;100437.00;;;9.50
20092;BMP180;10205;49.678;6.560;2024-03-07T05:44:12;100428.00;;;9.50
20092;BMP180;10205;49.678;6.560;2024-03-07T05:46:40;100430.00;;;9.50
20092;BMP180;10205;49.678;6.560;2024-03-07T05:49:12;100437.00;;;9.50
20092;BMP180;10205;49.678;6.560;2024-03-07T05:51:39;100436.00;;;9.60
20092;BMP180;10205;49.678;6.560;2024-03-07T05:54:07;100430.00;;;9.60
20092;BMP180;10205;49.678;6.560;2024-03-07T05:56:35;100430.00;;;9.60
20092;BMP180;10205;49.678;6.560;2024-03-07T05:59:04;100422.00;;;9.60
20092;BMP180;10205;49.678;6.560;2024-03-07T06:01:33;100429.00;;;9.70
20092;BMP180;10205;49.678;6.560;2024-03-07T06:04:00;100421.00;;;9.70
20092;BMP180;10205;49.678;6.560;2024-03-07T06:06:28;100425.00;;;9.60
20092;BMP180;10205;49.678;6.560;2024-03-07T06:08:57;100426.00;;;9.60
20092;BMP180;10205;49.678;6.560;2024-03-07T06:11:25;100429.00;;;9.60
20092;BMP180;10205;49.678;6.560;2024-03-07T06:13:52;100432.00;;;9.60
20092;BMP180;10205;49.678;6.560;2024-03-07T06:16:20;100419.00;;;9.50
20092;BMP180;10205;49.678;6.560;2024-03-07T06:18:47;100429.00;;;9.50
20092;BMP180;10205;49.678;6.560;2024-03-07T06:21:14;100433.00;;;9.50
20092;BMP180;10205;49.678;6.560;2024-03-07T06:23:41;100436.00;;;9.40
20092;BMP180;10205;49.678;6.560;2024-03-07T06:26:14;100424.00;;;9.40
20092;BMP180;10205;49.678;6.560;2024-03-07T06:28:52;100438.00;;;9.40
20092;BMP180;10205;49.678;6.560;2024-03-07T06:31:21;100437.00;;;9.40
20092;BMP180;10205;49.678;6.560;2024-03-07T06:33:48;100438.00;;;9.40
20092;BMP180;10205;49.678;6.560;2024-03-07T06:36:15;100436.00;;;9.40
20092;BMP180;10205;49.678;6.560;2024-03-07T06:38:42;100444.00;;;9.40
20092;BMP180;10205;49.678;6.560;2024-03-07T06:41:09;100431.00;;;9.30
20092;BMP180;10205;49.678;6.560;2024-03-07T06:43:37;100434.00;;;9.30
20092;BMP180;10205;49.678;6.560;2024-03-07T06:46:04;100440.00;;;9.40
20092;BMP180;10205;49.678;6.560;2024-03-07T06:48:33;100437.00;;;9.30
20092;BMP180;10205;49.678;6.560;2024-03-07T06:51:00;100454.00;;;9.30
20092;BMP180;10205;49.678;6.560;2024-03-07T06:53:27;100438.00;;;9.20
20092;BMP180;10205;49.678;6.560;2024-03-07T06:55:55;100447.00;;;9.20
20092;BMP180;10205;49.678;6.560;2024-03-07T06:58:23;100447.00;;;9.20
20092;BMP180;10205;49.678;6.560;2024-03-07T07:00:50;100430.00;;;9.20
20092;BMP180;10205;49.678;6.560;2024-03-07T07:03:20;100444.00;;;9.20
20092;BMP180;10205;49.678;6.560;2024-03-07T07:05:49;100458.00;;;9.20
20092;BMP180;10205;49.678;6.560;2024-03-07T07:08:16;100452.00;;;9.20
20092;BMP180;10205;49.678;6.560;2024-03-07T07:10:43;100439.00;;;9.20
20092;BMP180;10205;49.678;6.560;2024-03-07T07:13:10;100449.00;;;9.10
20092;BMP180;10205;49.678;6.560;2024-03-07T07:15:39;100453.00;;;9.00
20092;BMP180;10205;49.678;6.560;2024-03-07T07:18:06;100454.00;;;8.90
20092;BMP180;10205;49.678;6.560;2024-03-07T07:20:34;100457.00;;;8.90
20092;BMP180;10205;49.678;6.560;2024-03-07T07:23:03;100452.00;;;8.80
20092;BMP180;10205;49.678;6.560;2024-03-07T07:25:36;100450.00;;;8.80
20092;BMP180;10205;49.678;6.560;2024-03-07T07:28:04;100454.00;;;8.80
20092;BMP180;10205;49.678;6.560;2024-03-07T07:30:34;100446.00;;;8.70
20092;BMP180;10205;49.678;6.560;2024-03-07T07:33:01;100455.00;;;8.70
20092;BMP180;10205;49.678;6.560;2024-03-07T07:35:28;100447.00;;;8.70
20092;BMP180;10205;49.678;6.560;2024-03-07T07:37:56;100451.00;;;8.60
20092;BMP180;10205;49.678;6.560;2024-03-07T07:40:25;100443.00;;;8.60
20092;BMP180;10205;49.678;6.560;2024-03-07T07:42:54;100448.00;;;8.50
20092;BMP180;10205;49.678;6.560;2024-03-07T07:45:23;100447.00;;;8.50
20092;BMP180;10205;49.678;6.560;2024-03-07T07:47:52;100443.00;;;8.40
20092;BMP180;10205;49.678;6.560;2024-03-07T07:50:21;100434.00;;;8.40
20092;BMP180;10205;49.678;6.560;2024-03-07T07:52:50;100435.00;;;8.40
20092;BMP180;10205;49.678;6.560;2024-03-07T07:55:20;100434.00;;;8.40
20092;BMP180;10205;49.678;6.560;2024-03-07T07:57:54;100426.00;;;8.50
20092;BMP180;10205;49.678;6.560;2024-03-07T08:00:23;100427.00;;;8.50
20092;BMP180;10205;49.678;6.560;2024-03-07T08:02:53;100425.00;;;8.50
20092;BMP180;10205;49.678;6.560;2024-03-07T08:05:21;100440.00;;;8.50
20092;BMP180;10205;49.678;6.560;2024-03-07T08:07:49;100427.00;;;8.60
20092;BMP180;10205;49.678;6.560;2024-03-07T08:10:19;100422.00;;;8.60
20092;BMP180;10205;49.678;6.560;2024-03-07T08:12:46;100417.00;;;8.60
20092;BMP180;10205;49.678;6.560;2024-03-07T08:15:16;100412.00;;;8.70
20092;BMP180;10205;49.678;6.560;2024-03-07T08:17:44;100407.00;;;8.70
20092;BMP180;10205;49.678;6.560;2024-03-07T08:20:14;100401.00;;;8.70
20092;BMP180;10205;49.678;6.560;2024-03-07T08:22:42;100410.00;;;8.80
20092;BMP180;10205;49.678;6.560;2024-03-07T08:25:10;100404.00;;;8.80
20092;BMP180;10205;49.678;6.560;2024-03-07T08:27:39;100403.00;;;8.80
20092;BMP180;10205;49.678;6.560;2024-03-07T08:30:09;100401.00;;;8.80
20092;BMP180;10205;49.678;6.560;2024-03-07T08:32:40;100397.00;;;8.80
20092;BMP180;10205;49.678;6.560;2024-03-07T08:35:09;100397.00;;;8.90
20092;BMP180;10205;49.678;6.560;2024-03-07T08:37:38;100395.00;;;8.90
20092;BMP180;10205;49.678;6.560;2024-03-07T08:40:07;100391.00;;;8.90
20092;BMP180;10205;49.678;6.560;2024-03-07T08:42:37;100377.00;;;8.90
20092;BMP180;10205;49.678;6.560;2024-03-07T08:45:07;100402.00;;;9.00
20092;BMP180;10205;49.678;6.560;2024-03-07T08:47:37;100391.00;;;9.00
20092;BMP180;10205;49.678;6.560;2024-03-07T08:50:08;100381.00;;;9.10
20092;BMP180;10205;49.678;6.560;2024-03-07T08:52:35;100380.00;;;9.10
20092;BMP180;10205;49.678;6.560;2024-03-07T08:55:04;100374.00;;;9.10
20092;BMP180;10205;49.678;6.560;2024-03-07T08:57:31;100377.00;;;9.20
20092;BMP180;10205;49.678;6.560;2024-03-07T08:59:58;100373.00;;;9.20
20092;BMP180;10205;49.678;6.560;2024-03-07T09:02:27;100374.00;;;9.30
20092;BMP180;10205;49.678;6.560;2024-03-07T09:04:54;100369.00;;;9.30
20092;BMP180;10205;49.678;6.560;2024-03-07T09:07:22;100359.00;;;9.40
20092;BMP180;10205;49.678;6.560;2024-03-07T09:09:49;100367.00;;;9.40
20092;BMP180;10205;49.678;6.560;2024-03-07T09:12:16;100371.00;;;9.50
20092;BMP180;10205;49.678;6.560;2024-03-07T09:14:45;100365.00;;;9.50
20092;BMP180;10205;49.678;6.560;2024-03-07T09:17:13;100366.00;;;9.70
20092;BMP180;10205;49.678;6.560;2024-03-07T09:19:40;100357.00;;;9.70
20092;BMP180;10205;49.678;6.560;2024-03-07T09:22:07;100369.00;;;9.80
20092;BMP180;10205;49.678;6.560;2024-03-07T09:24:35;100364.00;;;9.80
20092;BMP180;10205;49.678;6.560;2024-03-07T09:27:03;100351.00;;;9.90
20092;BMP180;10205;49.678;6.560;2024-03-07T09:29:31;100359.00;;;10.00
20092;BMP180;10205;49.678;6.560;2024-03-07T09:31:59;100362.00;;;10.00
20092;BMP180;10205;49.678;6.560;2024-03-07T09:34:26;100356.00;;;10.10
20092;BMP180;10205;49.678;6.560;2024-03-07T09:36:53;100352.00;;;10.10
20092;BMP180;10205;49.678;6.560;2024-03-07T09:39:20;100346.00;;;10.20
20092;BMP180;10205;49.678;6.560;2024-03-07T09:41:49;100356.00;;;10.20
20092;BMP180;10205;49.678;6.560;2024-03-07T09:44:19;100337.00;;;10.30
20092;BMP180;10205;49.678;6.560;2024-03-07T09:46:50;100351.00;;;10.30
20092;BMP180;10205;49.678;6.560;2024-03-07T09:49:17;100353.00;;;10.40
20092;BMP180;10205;49.678;6.560;2024-03-07T09:51:47;100344.00;;;10.40
20092;BMP180;10205;49.678;6.560;2024-03-07T09:54:14;100345.00;;;10.50
20092;BMP180;10205;49.678;6.560;2024-03-07T09:56:42;100331.00;;;10.50
20092;BMP180;10205;49.678;6.560;2024-03-07T09:59:12;100345.00;;;10.60
20092;BMP180;10205;49.678;6.560;2024-03-07T10:01:43;100335.00;;;10.60
20092;BMP180;10205;49.678;6.560;2024-03-07T10:04:16;100335.00;;;10.70
20092;BMP180;10205;49.678;6.560;2024-03-07T10:06:46;100340.00;;;10.70
20092;BMP180;10205;49.678;6.560;2024-03-07T10:09:14;100335.00;;;10.80
20092;BMP180;10205;49.678;6.560;2024-03-07T10:11:43;100339.00;;;10.90
20092;BMP180;10205;49.678;6.560;2024-03-07T10:14:11;100334.00;;;11.00
20092;BMP180;10205;49.678;6.560;2024-03-07T10:16:39;100340.00;;;11.00
20092;BMP180;10205;49.678;6.560;2024-03-07T10:19:07;100331.00;;;11.10
20092;BMP180;10205;49.678;6.560;2024-03-07T10:21:35;100333.00;;;11.10
20092;BMP180;10205;49.678;6.560;2024-03-07T10:24:06;100316.00;;;11.20
20092;BMP180;10205;49.678;6.560;2024-03-07T10:26:35;100323.00;;;11.20
20092;BMP180;10205;49.678;6.560;2024-03-07T10:29:04;100322.00;;;11.30
20092;BMP180;10205;49.678;6.560;2024-03-07T10:31:34;100332.00;;;11.30
20092;BMP180;10205;49.678;6.560;2024-03-07T10:34:03;100330.00;;;11.40
20092;BMP180;10205;49.678;6.560;2024-03-07T10:36:31;100321.00;;;11.40
20092;BMP180;10205;49.678;6.560;2024-03-07T10:38:58;100334.00;;;11.50
20092;BMP180;10205;49.678;6.560;2024-03-07T10:41:45;100325.00;;;11.60
20092;BMP180;10205;49.678;6.560;2024-03-07T10:44:23;100318.00;;;11.60
20092;BMP180;10205;49.678;6.560;2024-03-07T10:46:55;100315.00;;;11.70
20092;BMP180;10205;49.678;6.560;2024-03-07T10:49:26;100324.00;;;11.70
20092;BMP180;10205;49.678;6.560;2024-03-07T10:52:03;100317.00;;;11.70
20092;BMP180;10205;49.678;6.560;2024-03-07T10:54:42;100311.00;;;11.70
20092;BMP180;10205;49.678;6.560;2024-03-07T10:57:23;100314.00;;;11.80
20092;BMP180;10205;49.678;6.560;2024-03-07T11:00:00;100303.00;;;11.80
20092;BMP180;10205;49.678;6.560;2024-03-07T11:02:46;100301.00;;;11.90
20092;BMP180;10205;49.678;6.560;2024-03-07T11:05:15;100299.00;;;12.00
20092;BMP180;10205;49.678;6.560;2024-03-07T11:07:43;100303.00;;;12.00
20092;BMP180;10205;49.678;6.560;2024-03-07T11:10:11;100307.00;;;12.00
20092;BMP180;10205;49.678;6.560;2024-03-07T11:12:41;100308.00;;;12.00
20092;BMP180;10205;49.678;6.560;2024-03-07T11:15:11;100296.00;;;12.10
20092;BMP180;10205;49.678;6.560;2024-03-07T11:17:43;100297.00;;;12.10
20092;BMP180;10205;49.678;6.560;2024-03-07T11:20:22;100289.00;;;12.20
20092;BMP180;10205;49.678;6.560;2024-03-07T11:22:50;100304.00;;;12.20
20092;BMP180;10205;49.678;6.560;2024-03-07T11:25:20;100294.00;;;12.30
20092;BMP180;10205;49.678;6.560;2024-03-07T11:27:59;100282.00;;;12.40
20092;BMP180;10205;49.678;6.560;2024-03-07T11:30:27;100281.00;;;12.40
20092;BMP180;10205;49.678;6.560;2024-03-07T11:32:56;100272.00;;;12.40
20092;BMP180;10205;49.678;6.560;2024-03-07T11:35:32;100278.00;;;12.40
20092;BMP180;10205;49.678;6.560;2024-03-07T11:38:01;100269.00;;;12.40
20092;BMP180;10205;49.678;6.560;2024-03-07T11:40:46;100276.00;;;12.50
20092;BMP180;10205;49.678;6.560;2024-03-07T11:43:17;100281.00;;;12.50
20092;BMP180;10205;49.678;6.560;2024-03-07T11:45:44;100267.00;;;12.50
20092;BMP180;10205;49.678;6.560;2024-03-07T11:48:19;100270.00;;;12.50
20092;BMP180;10205;49.678;6.560;2024-03-07T11:50:47;100256.00;;;12.60
20092;BMP180;10205;49.678;6.560;2024-03-07T11:53:15;100253.00;;;12.60
20092;BMP180;10205;49.678;6.560;2024-03-07T11:55:43;100248.00;;;12.60
20092;BMP180;10205;49.678;6.560;2024-03-07T11:58:12;100257.00;;;12.60
20092;BMP180;10205;49.678;6.560;2024-03-07T12:00:42;100241.00;;;12.60
20092;BMP180;10205;49.678;6.560;2024-03-07T12:03:11;100237.00;;;12.60
20092;BMP180;10205;49.678;6.560;2024-03-07T12:05:41;100238.00;;;12.70
20092;BMP180;10205;49.678;6.560;2024-03-07T12:08:10;100232.00;;;12.70
20092;BMP180;10205;49.678;6.560;2024-03-07T12:10:38;100244.00;;;12.70
20092;BMP180;10205;49.678;6.560;2024-03-07T12:13:06;100234.00;;;12.70
20092;BMP180;10205;49.678;6.560;2024-03-07T12:15:34;100228.00;;;12.70
20092;BMP180;10205;49.678;6.560;2024-03-07T12:18:02;100233.00;;;12.70
20092;BMP180;10205;49.678;6.560;2024-03-07T12:20:38;100216.00;;;12.70
20092;BMP180;10205;49.678;6.560;2024-03-07T12:23:08;100231.00;;;12.70
20092;BMP180;10205;49.678;6.560;2024-03-07T12:25:37;100221.00;;;12.70
20092;BMP180;10205;49.678;6.560;2024-03-07T12:28:08;100218.00;;;12.70
20092;BMP180;10205;49.678;6.560;2024-03-07T12:30:49;100226.00;;;12.70
20092;BMP180;10205;49.678;6.560;2024-03-07T12:33:21;100220.00;;;12.70
20092;BMP180;10205;49.678;6.560;2024-03-07T12:35:53;100207.00;;;12.70
20092;BMP180;10205;49.678;6.560;2024-03-07T12:38:29;100200.00;;;12.60
20092;BMP180;10205;49.678;6.560;2024-03-07T12:41:05;100210.00;;;12.60
20092;BMP180;10205;49.678;6.560;2024-03-07T12:43:33;100215.00;;;12.60
20092;BMP180;10205;49.678;6.560;2024-03-07T12:46:01;100213.00;;;12.70
20092;BMP180;10205;49.678;6.560;2024-03-07T12:48:31;100204.00;;;12.70
20092;BMP180;10205;49.678;6.560;2024-03-07T12:50:58;100199.00;;;12.70
20092;BMP180;10205;49.678;6.560;2024-03-07T12:53:26;100186.00;;;12.80
20092;BMP180;10205;49.678;6.560;2024-03-07T12:55:55;100195.00;;;12.90
20092;BMP180;10205;49.678;6.560;2024-03-07T12:58:22;100191.00;;;12.90
20092;BMP180;10205;49.678;6.560;2024-03-07T13:00:51;100183.00;;;13.00
20092;BMP180;10205;49.678;6.560;2024-03-07T13:03:18;100186.00;;;13.00
20092;BMP180;10205;49.678;6.560;2024-03-07T13:05:47;100174.00;;;13.00
20092;BMP180;10205;49.678;6.560;2024-03-07T13:08:14;100175.00;;;13.00
20092;BMP180;10205;49.678;6.560;2024-03-07T13:10:43;100173.00;;;13.00
20092;BMP180;10205;49.678;6.560;2024-03-07T13:13:10;100166.00;;;13.00
20092;BMP180;10205;49.678;6.560;2024-03-07T13:15:37;100164.00;;;13.00
20092;BMP180;10205;49.678;6.560;2024-03-07T13:18:05;100165.00;;;13.00
20092;BMP180;10205;49.678;6.560;2024-03-07T13:20:35;100164.00;;;13.00
20092;BMP180;10205;49.678;6.560;2024-03-07T13:23:03;100159.00;;;13.00
20092;BMP180;10205;49.678;6.560;2024-03-07T13:25:31;100150.00;;;13.10
20092;BMP180;10205;49.678;6.560;2024-03-07T13:28:04;100148.00;;;13.10
20092;BMP180;10205;49.678;6.560;2024-03-07T13:30:33;100157.00;;;13.20
20092;BMP180;10205;49.678;6.560;2024-03-07T13:33:03;100140.00;;;13.20
20092;BMP180;10205;49.678;6.560;2024-03-07T13:35:31;100147.00;;;13.20
20092;BMP180;10205;49.678;6.560;2024-03-07T13:37:59;100157.00;;;13.20
20092;BMP180;10205;49.678;6.560;2024-03-07T13:40:27;100145.00;;;13.20
20092;BMP180;10205;49.678;6.560;2024-03-07T13:42:58;100152.00;;;13.20
20092;BMP180;10205;49.678;6.560;2024-03-07T13:45:29;100137.00;;;13.20
20092;BMP180;10205;49.678;6.560;2024-03-07T13:47:58;100129.00;;;13.20
20092;BMP180;10205;49.678;6.560;2024-03-07T13:50:28;100124.00;;;13.20
20092;BMP180;10205;49.678;6.560;2024-03-07T13:52:56;100136.00;;;13.20
20092;BMP180;10205;49.678;6.560;2024-03-07T13:55:54;100134.00;;;13.20
20092;BMP180;10205;49.678;6.560;2024-03-07T13:58:45;100131.00;;;13.20
20092;BMP180;10205;49.678;6.560;2024-03-07T14:01:34;100130.00;;;13.20
20092;BMP180;10205;49.678;6.560;2024-03-07T14:04:42;100118.00;;;13.30
20092;BMP180;10205;49.678;6.560;2024-03-07T14:07:38;100114.00;;;13.30
20092;BMP180;10205;49.678;6.560;2024-03-07T14:10:41;100118.00;;;13.30
20092;BMP180;10205;49.678;6.560;2024-03-07T14:13:42;100105.00;;;13.30